Time;durP1;ratioP1;P1;durP2;ratioP2;P2;SDS_P1;SDS_P2;PMS_P1;PMS_P2;Temp;Humidity;BMP_temperature;BMP_pressure;BME280_temperature;BME280_humidity;BME280_pressure;Samples;Min_cycle;Max_cycle;Signal;HPM_P1;HPM_P2
2024/01/25 00:02:15;;;;;;;23.42;6.07;;;;;;;7.50;100.00;102796.63;5090366;28;20031;-39
2024/01/25 00:04:41;;;;;;;22.80;4.77;;;;;;;7.52;100.00;102794.63;5089470;28;20400;-39
2024/01/25 00:07:09;;;;;;;23.90;5.85;;;;;;;7.46;100.00;102790.69;5081773;28;20024;-39
2024/01/25 00:09:35;;;;;;;28.25;6.05;;;;;;;7.44;100.00;102787.34;5075996;28;20055;-39
2024/01/25 00:12:00;;;;;;;25.80;6.50;;;;;;;7.39;100.00;102795.06;5076122;28;20024;-39
2024/01/25 00:14:26;;;;;;;22.43;6.00;;;;;;;7.27;100.00;102782.91;5076154;28;20025;-39
2024/01/25 00:16:51;;;;;;;21.87;6.13;;;;;;;7.36;100.00;102776.53;5076274;28;20360;-39
2024/01/25 00:19:17;;;;;;;25.33;6.53;;;;;;;7.33;100.00;102784.97;5075891;28;20433;-39
2024/01/25 00:21:43;;;;;;;23.87;5.73;;;;;;;7.18;100.00;102782.03;5075978;28;20057;-39
2024/01/25 00:24:10;;;;;;;22.63;6.47;;;;;;;7.25;100.00;102802.91;5076533;28;20279;-39
2024/01/25 00:26:35;;;;;;;20.92;5.05;;;;;;;7.25;100.00;102800.22;5076326;28;20056;-39
2024/01/25 00:29:01;;;;;;;18.73;5.00;;;;;;;7.26;100.00;102810.81;5075813;28;20071;-39
2024/01/25 00:31:27;;;;;;;27.00;5.63;;;;;;;7.23;100.00;102795.84;5075808;28;20024;-39
2024/01/25 00:33:52;;;;;;;27.50;6.00;;;;;;;7.20;100.00;102798.00;5075658;28;20024;-39
2024/01/25 00:36:18;;;;;;;24.00;5.50;;;;;;;7.15;100.00;102801.19;5075940;28;20376;-39
2024/01/25 00:38:44;;;;;;;20.50;5.88;;;;;;;7.15;100.00;102798.50;5075865;28;20023;-39
2024/01/25 00:41:10;;;;;;;27.90;6.00;;;;;;;7.13;100.00;102795.13;5076091;28;20024;-39
2024/01/25 00:43:35;;;;;;;;;;;;;;;7.15;100.00;102790.41;5076450;28;20036;-39
2024/01/25 00:46:01;;;;;;;28.05;5.93;;;;;;;7.10;100.00;102808.88;5075959;28;19908;-39
2024/01/25 00:48:26;;;;;;;20.77;5.00;;;;;;;7.07;100.00;102809.19;5075671;28;20024;-39
2024/01/25 00:50:52;;;;;;;20.40;5.85;;;;;;;7.07;100.00;102816.44;5075681;28;20082;-39
2024/01/25 00:53:18;;;;;;;19.10;5.40;;;;;;;7.03;100.00;102812.38;5074991;28;20029;-39
2024/01/25 00:55:43;;;;;;;23.75;6.10;;;;;;;7.00;100.00;102810.00;5075535;28;20068;-39
2024/01/25 00:58:09;;;;;;;23.95;5.25;;;;;;;6.97;100.00;102812.00;5075249;28;20032;-39
2024/01/25 01:00:35;;;;;;;27.35;6.40;;;;;;;6.95;100.00;102814.03;5075634;28;20060;-39
2024/01/25 01:03:04;;;;;;;19.80;5.75;;;;;;;6.95;100.00;102822.09;5075429;28;20099;-39
2024/01/25 01:05:29;;;;;;;25.08;6.03;;;;;;;6.92;100.00;102818.88;5074719;28;20028;-39
2024/01/25 01:07:55;;;;;;;24.60;6.18;;;;;;;6.86;100.00;102809.59;5075238;28;20024;-39
2024/01/25 01:10:20;;;;;;;24.83;5.90;;;;;;;6.90;100.00;102824.41;5075439;28;20035;-38
2024/01/25 01:12:45;;;;;;;23.63;5.40;;;;;;;6.80;100.00;102818.28;5075252;28;20036;-38
2024/01/25 01:15:11;;;;;;;23.73;5.87;;;;;;;6.74;100.00;102818.09;5075319;28;20111;-39
2024/01/25 01:17:36;;;;;;;32.10;8.47;;;;;;;6.80;100.00;102830.91;5075033;28;20047;-39
2024/01/25 01:20:02;;;;;;;22.90;5.40;;;;;;;6.78;100.00;102836.41;5074631;28;20032;-39
2024/01/25 01:22:27;;;;;;;27.65;6.13;;;;;;;6.73;100.00;102830.66;5074991;28;20095;-39
2024/01/25 01:24:53;;;;;;;21.07;5.70;;;;;;;6.66;100.00;102811.63;5074709;28;20158;-39
2024/01/25 01:27:20;;;;;;;18.30;5.40;;;;;;;6.71;100.00;102825.47;5074734;28;20029;-39
2024/01/25 01:29:45;;;;;;;20.83;5.50;;;;;;;6.62;100.00;102825.56;5074292;28;20032;-39
2024/01/25 01:32:11;;;;;;;27.15;6.00;;;;;;;6.67;100.00;102834.84;5074553;28;20028;-38
2024/01/25 01:34:36;;;;;;;29.00;6.73;;;;;;;6.62;100.00;102839.84;5074182;28;20028;-39
2024/01/25 01:37:02;;;;;;;27.43;5.73;;;;;;;6.58;100.00;102841.16;5074760;28;20464;-39
2024/01/25 01:39:27;;;;;;;23.13;5.87;;;;;;;6.56;100.00;102843.16;5074354;28;20325;-39
2024/01/25 01:41:52;;;;;;;22.13;5.93;;;;;;;6.52;100.00;102835.56;5074367;28;20261;-39
2024/01/25 01:44:18;;;;;;;18.63;5.00;;;;;;;6.45;100.00;102830.81;5074255;28;20514;-39
2024/01/25 01:46:44;;;;;;;23.87;5.63;;;;;;;6.48;100.00;102853.00;5074852;28;20257;-39
2024/01/25 01:49:14;;;;;;;24.00;6.15;;;;;;;6.43;100.00;102851.59;5074673;28;20029;-39
2024/01/25 01:51:43;;;;;;;26.00;6.45;;;;;;;6.42;100.00;102857.16;5074622;28;20471;-39
2024/01/25 01:54:09;;;;;;;21.58;5.95;;;;;;;6.38;100.00;102867.34;5074039;28;20032;-39
2024/01/25 01:56:35;;;;;;;27.25;6.07;;;;;;;6.39;100.00;102861.00;5074562;28;20052;-39
2024/01/25 01:59:02;;;;;;;18.52;5.10;;;;;;;6.30;100.00;102856.53;5073903;28;20023;-39
2024/01/25 02:01:28;;;;;;;22.75;5.07;;;;;;;6.26;100.00;102854.31;5074519;28;20373;-39
2024/01/25 02:03:54;;;;;;;20.40;5.72;;;;;;;6.24;100.00;102865.19;5073650;28;20036;-39
2024/01/25 02:06:19;;;;;;;19.08;5.30;;;;;;;6.30;100.00;102879.88;5074178;28;20036;-39
2024/01/25 02:08:45;;;;;;;24.88;5.55;;;;;;;6.30;100.00;102886.09;5073801;28;20070;-39
2024/01/25 02:11:14;;;;;;;;;;;;;;;6.31;100.00;102885.09;5074222;28;20033;-39
2024/01/25 02:13:40;;;;;;;22.83;5.22;;;;;;;6.24;100.00;102893.91;5073805;28;19958;-39
2024/01/25 02:16:07;;;;;;;24.50;5.28;;;;;;;6.22;100.00;102890.53;5073989;28;20461;-39
2024/01/25 02:18:33;;;;;;;23.10;5.38;;;;;;;6.14;100.00;102889.44;5073618;28;20086;-39
2024/01/25 02:20:58;;;;;;;28.40;6.50;;;;;;;6.16;100.00;102900.06;5073761;28;20021;-39
2024/01/25 02:23:24;;;;;;;22.40;6.07;;;;;;;6.10;100.00;102901.50;5073635;28;20054;-39
2024/01/25 02:25:49;;;;;;;27.07;6.97;;;;;;;6.12;100.00;102895.97;5073461;28;20366;-39
2024/01/25 02:28:14;;;;;;;24.67;5.47;;;;;;;6.09;100.00;102897.13;5073341;28;20428;-39
2024/01/25 02:30:40;;;;;;;21.93;5.77;;;;;;;6.03;100.00;102894.19;5073624;28;20031;-39
2024/01/25 02:33:05;;;;;;;26.40;7.00;;;;;;;5.97;100.00;102886.75;5073325;28;20028;-39
2024/01/25 02:35:30;;;;;;;21.90;5.67;;;;;;;6.00;100.00;102898.00;5073434;28;20524;-39
2024/01/25 02:37:56;;;;;;;22.10;5.57;;;;;;;5.87;100.00;102879.56;5073800;28;20476;-39
2024/01/25 02:40:22;;;;;;;27.58;5.93;;;;;;;5.92;100.00;102906.00;5073366;28;20469;-39
2024/01/25 02:42:47;;;;;;;25.93;5.70;;;;;;;5.85;100.00;102903.00;5074241;28;20040;-39
2024/01/25 02:45:12;;;;;;;28.13;6.93;;;;;;;5.84;100.00;102908.53;5073467;28;20052;-38
2024/01/25 02:47:37;;;;;;;24.00;5.90;;;;;;;5.81;100.00;102900.81;5073143;28;20024;-39
2024/01/25 02:50:03;;;;;;;22.03;5.23;;;;;;;5.82;100.00;102897.13;5073012;28;20039;-39
2024/01/25 02:52:28;;;;;;;21.52;5.50;;;;;;;5.77;100.00;102900.25;5073842;28;20035;-47
2024/01/25 02:54:54;;;;;;;25.97;5.70;;;;;;;5.79;100.00;102908.16;5073150;28;20483;-38
2024/01/25 02:57:19;;;;;;;25.37;5.40;;;;;;;5.77;100.00;102897.56;5073293;28;20090;-39
2024/01/25 02:59:44;;;;;;;27.97;6.73;;;;;;;5.79;100.00;102887.50;5073318;28;20021;-39
2024/01/25 03:02:10;;;;;;;26.47;6.40;;;;;;;5.75;100.00;102893.31;5073335;28;20024;-38
2024/01/25 03:04:35;;;;;;;26.80;5.77;;;;;;;5.72;100.00;102899.84;5073494;28;20025;-38
2024/01/25 03:07:00;;;;;;;18.80;5.63;;;;;;;5.67;100.00;102903.00;5073204;28;20021;-38
2024/01/25 03:09:26;;;;;;;25.53;5.93;;;;;;;5.64;100.00;102899.75;5073926;28;20111;-38
2024/01/25 03:11:51;;;;;;;23.00;5.65;;;;;;;5.50;100.00;102878.75;5073164;28;20016;-38
2024/01/25 03:14:17;;;;;;;24.33;5.77;;;;;;;5.58;100.00;102897.66;5073893;28;20107;-38
2024/01/25 03:16:43;;;;;;;21.15;5.97;;;;;;;5.59;100.00;102893.97;5073082;28;20473;-38
2024/01/25 03:19:08;;;;;;;23.00;5.22;;;;;;;5.54;100.00;102891.72;5072992;28;20074;-39
2024/01/25 03:21:34;;;;;;;25.20;6.28;;;;;;;5.52;100.00;102892.88;5073867;28;20039;-38
2024/01/25 03:23:59;;;;;;;23.20;5.90;;;;;;;5.49;100.00;102898.53;5072764;28;20024;-38
2024/01/25 03:26:27;;;;;;;24.27;5.57;;;;;;;5.50;100.00;102897.53;5073292;28;20039;-38
2024/01/25 03:28:52;;;;;;;28.25;6.35;;;;;;;5.35;100.00;102887.28;5072704;28;20032;-38
2024/01/25 03:31:17;;;;;;;22.63;6.37;;;;;;;5.36;100.00;102899.69;5073266;28;20353;-38
2024/01/25 03:33:43;;;;;;;24.00;5.87;;;;;;;5.33;100.00;102889.28;5072999;28;20464;-39
2024/01/25 03:36:08;;;;;;;21.47;5.67;;;;;;;5.30;100.00;102888.72;5073416;28;20526;-38
2024/01/25 03:38:33;;;;;;;16.45;5.20;;;;;;;5.33;100.00;102905.38;5073132;28;20032;-38
2024/01/25 03:40:59;;;;;;;24.40;5.33;;;;;;;5.32;100.00;102900.13;5073284;28;20056;-39
2024/01/25 03:43:25;;;;;;;19.67;4.77;;;;;;;5.25;100.00;102913.31;5076026;28;20028;-39
2024/01/25 03:45:51;;;;;;;20.88;5.13;;;;;;;5.19;100.00;102908.53;5076602;28;20035;-39
2024/01/25 03:48:16;;;;;;;27.05;6.18;;;;;;;5.15;100.00;102913.31;5076781;28;20107;-38
2024/01/25 03:50:42;;;;;;;23.43;6.17;;;;;;;5.09;100.00;102902.34;5076780;28;20046;-38
2024/01/25 03:53:07;;;;;;;22.08;5.75;;;;;;;5.14;100.00;102905.44;5076705;28;20079;-38
2024/01/25 03:55:32;;;;;;;23.77;5.27;;;;;;;5.09;100.00;102905.88;5076279;28;20056;-39
2024/01/25 03:57:58;;;;;;;20.70;5.70;;;;;;;5.03;100.00;102902.94;5076388;28;20338;-39
2024/01/25 04:00:24;;;;;;;20.83;6.00;;;;;;;5.07;100.00;102906.97;5076723;28;20024;-39
2024/01/25 04:02:50;;;;;;;;;;;;;;;5.10;100.00;102910.22;5076938;28;20105;-38
2024/01/25 04:05:15;;;;;;;20.77;5.00;;;;;;;4.99;100.00;102906.88;5075895;28;20003;-38
2024/01/25 04:07:40;;;;;;;27.80;6.57;;;;;;;4.96;100.00;102915.19;5076629;28;20338;-38
2024/01/25 04:10:06;;;;;;;27.53;6.50;;;;;;;4.93;100.00;102924.41;5075742;28;20027;-38
2024/01/25 04:12:33;;;;;;;23.83;5.85;;;;;;;4.78;100.00;102905.22;5076057;28;20267;-39
2024/01/25 04:14:58;;;;;;;25.05;5.75;;;;;;;4.76;100.00;102904.50;5076152;28;20020;-39
2024/01/25 04:17:24;;;;;;;21.17;6.00;;;;;;;4.81;100.00;102915.63;5076330;28;20048;-38
2024/01/25 04:19:49;;;;;;;25.97;5.80;;;;;;;4.77;100.00;102914.22;5076000;28;20029;-38
2024/01/25 04:22:14;;;;;;;17.73;5.03;;;;;;;4.78;100.00;102918.63;5075979;28;20078;-38
2024/01/25 04:24:40;;;;;;;17.67;5.70;;;;;;;4.74;100.00;102919.88;5075409;28;20370;-38
2024/01/25 04:27:06;;;;;;;24.48;5.50;;;;;;;4.73;100.00;102915.50;5076051;28;20028;-38
2024/01/25 04:29:31;;;;;;;19.50;5.57;;;;;;;4.66;100.00;102911.69;5076475;28;20029;-39
2024/01/25 04:31:56;;;;;;;23.37;5.30;;;;;;;4.60;100.00;102902.41;5076515;28;20021;-38
2024/01/25 04:34:22;;;;;;;20.37;5.50;;;;;;;4.66;100.00;102911.69;5074707;28;20032;-38
2024/01/25 04:36:47;;;;;;;26.57;7.03;;;;;;;4.60;100.00;102914.97;5075284;28;20025;-38
2024/01/25 04:39:13;;;;;;;22.53;5.57;;;;;;;4.54;100.00;102902.97;5075567;28;20062;-38
2024/01/25 04:41:38;;;;;;;20.50;5.28;;;;;;;4.51;100.00;102902.41;5076343;28;20095;-38
2024/01/25 04:44:04;;;;;;;27.10;6.20;;;;;;;4.59;100.00;102918.63;5075733;28;20052;-38
2024/01/25 04:46:35;;;;;;;17.90;4.95;;;;;;;4.60;100.00;102906.91;5075431;28;20032;-38
2024/01/25 04:49:01;;;;;;;26.45;5.63;;;;;;;4.57;100.00;102916.06;5075429;28;20059;-39
2024/01/25 04:51:26;;;;;;;19.08;5.03;;;;;;;4.57;100.00;102909.88;5075642;28;20430;-38
2024/01/25 04:53:52;;;;;;;19.92;5.95;;;;;;;4.57;100.00;102907.19;5075178;28;20020;-38
2024/01/25 04:56:17;;;;;;;25.33;5.37;;;;;;;4.53;100.00;102911.13;5075552;28;20427;-38
2024/01/25 04:58:42;;;;;;;28.00;6.83;;;;;;;4.44;100.00;102909.28;5075264;28;20448;-38
2024/01/25 05:01:08;;;;;;;26.57;5.30;;;;;;;4.49;100.00;102929.34;5075170;28;20127;-38
2024/01/25 05:03:33;;;;;;;28.30;6.68;;;;;;;4.43;100.00;102918.31;5074804;28;20025;-38
2024/01/25 05:05:59;;;;;;;25.02;5.95;;;;;;;4.43;100.00;102915.63;5075378;28;20078;-38
2024/01/25 05:08:25;;;;;;;21.80;6.43;;;;;;;4.44;100.00;102920.00;5075835;28;20365;-38
2024/01/25 05:10:50;;;;;;;28.00;6.07;;;;;;;4.41;100.00;102917.63;5075289;28;20273;-38
2024/01/25 05:13:15;;;;;;;26.53;5.30;;;;;;;4.42;100.00;102924.66;5075014;28;20052;-39
2024/01/25 05:15:41;;;;;;;27.33;6.88;;;;;;;4.38;100.00;102916.91;5074595;28;20024;-38
2024/01/25 05:18:07;;;;;;;29.73;6.43;;;;;;;4.38;100.00;102913.38;5075154;28;20373;-38
2024/01/25 05:20:32;;;;;;;34.05;7.50;;;;;;;4.35;100.00;102903.81;5075318;28;20441;-38
2024/01/25 05:23:05;;;;;;;24.80;5.57;;;;;;;4.33;100.00;102916.47;5075132;28;20058;-38
2024/01/25 05:25:30;;;;;;;29.30;6.70;;;;;;;4.33;100.00;102908.44;5074382;28;20036;-38
2024/01/25 05:27:57;;;;;;;26.77;6.35;;;;;;;4.30;100.00;102902.53;5075177;28;20030;-38
2024/01/25 05:30:24;;;;;;;39.38;6.03;;;;;;;4.31;100.00;102902.38;5074637;28;20029;-38
2024/01/25 05:32:50;;;;;;;20.40;5.55;;;;;;;4.33;100.00;102910.28;5075341;28;20035;-38
2024/01/25 05:35:15;;;;;;;;;;;;;;;4.38;100.00;102913.38;5074531;28;20025;-38
2024/01/25 05:37:41;;;;;;;28.92;6.00;;;;;;;4.25;100.00;102907.47;5074253;28;19919;-38
2024/01/25 05:40:07;;;;;;;23.92;5.45;;;;;;;4.24;100.00;102903.91;5074140;28;20063;-38
2024/01/25 05:42:33;;;;;;;26.33;6.75;;;;;;;4.22;100.00;102892.50;5074883;28;20032;-38
2024/01/25 05:44:58;;;;;;;19.13;5.60;;;;;;;4.26;100.00;102912.69;5074113;28;20377;-38
2024/01/25 05:47:24;;;;;;;21.55;5.65;;;;;;;4.25;100.00;102923.53;5074582;28;20024;-38
2024/01/25 05:49:49;;;;;;;24.08;6.65;;;;;;;4.22;100.00;102924.66;5074195;28;20102;-38
2024/01/25 05:52:15;;;;;;;30.98;8.00;;;;;;;4.16;100.00;102913.66;5074156;28;20031;-38
2024/01/25 05:54:40;;;;;;;21.40;5.53;;;;;;;4.24;100.00;102917.31;5074131;28;20055;-38
2024/01/25 05:57:05;;;;;;;26.60;5.93;;;;;;;4.19;100.00;102932.94;5074457;28;20279;-38
2024/01/25 05:59:31;;;;;;;24.37;5.90;;;;;;;4.20;100.00;102942.69;5074374;28;20481;-38
2024/01/25 06:01:56;;;;;;;28.50;5.63;;;;;;;4.20;100.00;102948.06;5074559;28;20024;-38
2024/01/25 06:04:21;;;;;;;25.20;6.77;;;;;;;4.08;100.00;102928.56;5073197;28;20035;-38
2024/01/25 06:06:47;;;;;;;26.53;6.30;;;;;;;4.09;100.00;102930.25;5073723;28;20028;-38
2024/01/25 06:09:14;;;;;;;28.23;6.80;;;;;;;4.09;100.00;102924.03;5073506;28;20028;-38
2024/01/25 06:11:39;;;;;;;24.48;6.88;;;;;;;4.08;100.00;102925.88;5073502;28;20070;-38
2024/01/25 06:14:05;;;;;;;21.35;6.10;;;;;;;4.05;100.00;102934.22;5074257;28;20020;-39
2024/01/25 06:16:31;;;;;;;25.27;6.50;;;;;;;3.99;100.00;102928.53;5074233;28;20368;-38
2024/01/25 06:18:56;;;;;;;26.43;7.37;;;;;;;3.98;100.00;102926.84;5073716;28;20384;-38
2024/01/25 06:21:22;;;;;;;21.60;5.70;;;;;;;3.95;100.00;102911.03;5074505;28;20066;-38
2024/01/25 06:23:47;;;;;;;27.50;7.90;;;;;;;3.98;100.00;102926.84;5073889;28;20271;-38
2024/01/25 06:26:12;;;;;;;26.30;7.43;;;;;;;3.97;100.00;102930.50;5073644;28;20048;-38
2024/01/25 06:28:38;;;;;;;25.40;6.77;;;;;;;3.91;100.00;102933.75;5074175;28;20028;-38
2024/01/25 06:31:03;;;;;;;25.07;6.63;;;;;;;3.87;100.00;102930.47;5073288;28;20081;-38
2024/01/25 06:33:28;;;;;;;25.98;6.90;;;;;;;3.82;100.00;102938.91;5074014;28;20075;-38
2024/01/25 06:35:54;;;;;;;27.07;6.43;;;;;;;3.78;100.00;102942.84;5073754;28;20063;-38
2024/01/25 06:38:20;;;;;;;27.02;6.55;;;;;;;3.76;100.00;102954.69;5073456;28;20028;-38
2024/01/25 06:40:45;;;;;;;20.40;5.33;;;;;;;3.65;100.00;102947.56;5073483;28;20028;-38
2024/01/25 06:43:11;;;;;;;22.87;6.03;;;;;;;3.65;100.00;102954.75;5073444;28;20032;-38
2024/01/25 06:45:39;;;;;;;19.67;5.93;;;;;;;3.61;100.00;102959.50;5073104;28;20040;-38
2024/01/25 06:48:05;;;;;;;26.30;5.85;;;;;;;3.57;100.00;102958.09;5073995;28;20110;-38
2024/01/25 06:50:31;;;;;;;23.15;6.28;;;;;;;3.60;100.00;102965.84;5073329;28;20048;-38
2024/01/25 06:52:56;;;;;;;23.10;6.60;;;;;;;3.54;100.00;102955.69;5074142;28;20455;-38
2024/01/25 06:55:22;;;;;;;23.40;5.85;;;;;;;3.55;100.00;102963.56;5073604;28;20079;-38
2024/01/25 06:57:47;;;;;;;23.20;6.40;;;;;;;3.52;100.00;102965.69;5073866;28;20475;-38
2024/01/25 07:00:15;;;;;;;24.48;5.65;;;;;;;3.59;100.00;102965.00;5072933;28;20463;-38
2024/01/25 07:02:41;;;;;;;19.52;6.00;;;;;;;3.50;100.00;102962.28;5073228;28;20484;-38
2024/01/25 07:05:06;;;;;;;18.00;5.55;;;;;;;3.40;100.00;102962.22;5073693;28;20028;-38
2024/01/25 07:07:32;;;;;;;22.10;5.50;;;;;;;3.36;100.00;102964.31;5073265;28;20109;-38
2024/01/25 07:09:58;;;;;;;19.25;5.18;;;;;;;3.33;100.00;102961.06;5073142;28;20029;-38
2024/01/25 07:12:23;;;;;;;14.97;4.47;;;;;;;3.27;100.00;102957.09;5072960;28;20029;-38
2024/01/25 07:14:48;;;;;;;18.77;5.53;;;;;;;3.20;100.00;102949.72;5073043;28;20102;-38
2024/01/25 07:17:14;;;;;;;19.90;5.30;;;;;;;3.24;100.00;102945.81;5075437;28;20040;-38
2024/01/25 07:19:39;;;;;;;23.63;6.33;;;;;;;3.15;100.00;102930.56;5076966;28;20036;-38
2024/01/25 07:22:05;;;;;;;16.53;5.80;;;;;;;3.23;100.00;102941.44;5077488;28;20277;-38
2024/01/25 07:24:31;;;;;;;20.83;5.90;;;;;;;3.17;100.00;102941.94;5076995;28;20456;-38
2024/01/25 07:26:56;;;;;;;;;;;;;;;3.27;100.00;102964.25;5078254;28;20297;-38
2024/01/25 07:29:21;;;;;;;12.63;4.63;;;;;;;3.16;100.00;102967.84;5077423;28;19916;-38
2024/01/25 07:31:47;;;;;;;15.60;4.93;;;;;;;3.14;100.00;102968.97;5077120;28;20266;-38
2024/01/25 07:34:12;;;;;;;18.43;5.60;;;;;;;3.17;100.00;102979.38;5077083;28;20032;-38
2024/01/25 07:36:37;;;;;;;19.53;5.77;;;;;;;3.19;100.00;102983.63;5077379;28;20107;-38
2024/01/25 07:39:03;;;;;;;20.90;6.23;;;;;;;3.20;100.00;102981.81;5076436;28;20028;-38
2024/01/25 07:41:29;;;;;;;20.48;5.95;;;;;;;3.10;100.00;102969.22;5076461;28;20059;-38
2024/01/25 07:43:55;;;;;;;20.43;7.03;;;;;;;3.20;100.00;102977.31;5076717;28;20058;-38
2024/01/25 07:46:21;;;;;;;24.88;6.85;;;;;;;3.25;100.00;102980.44;5076882;28;20024;-38
2024/01/25 07:48:47;;;;;;;27.98;7.03;;;;;;;3.35;100.00;102978.66;5076251;28;20510;-38
2024/01/25 07:51:13;;;;;;;23.38;6.72;;;;;;;3.39;100.00;102963.22;5076725;28;20396;-38
2024/01/25 07:53:39;;;;;;;28.20;7.10;;;;;;;3.48;100.00;102958.91;5076479;28;20035;-38
2024/01/25 07:56:07;;;;;;;21.77;7.27;;;;;;;3.48;100.00;102930.31;5076900;28;20048;-38
2024/01/25 07:58:33;;;;;;;26.80;7.57;;;;;;;3.64;100.00;102948.56;5076300;28;20275;-39
2024/01/25 08:00:58;;;;;;;27.02;7.55;;;;;;;3.58;100.00;102951.78;5076544;28;20043;-39
2024/01/25 08:03:23;;;;;;;29.73;7.23;;;;;;;3.62;100.00;102969.25;5076453;28;20063;-39
2024/01/25 08:05:49;;;;;;;26.87;6.53;;;;;;;3.59;100.00;102969.50;5076229;28;20025;-39
2024/01/25 08:08:14;;;;;;;22.87;6.90;;;;;;;3.62;100.00;102979.97;5076166;28;20411;-39
2024/01/25 08:10:39;;;;;;;22.53;6.17;;;;;;;3.65;100.00;102979.66;5075799;28;20070;-39
2024/01/25 08:13:05;;;;;;;25.00;7.20;;;;;;;3.69;100.00;102967.72;5075796;28;20035;-39
2024/01/25 08:15:30;;;;;;;19.73;6.10;;;;;;;3.71;100.00;102968.47;5076063;28;20054;-39
2024/01/25 08:17:55;;;;;;;24.60;7.53;;;;;;;3.76;100.00;102968.06;5076113;28;20033;-39
2024/01/25 08:20:21;;;;;;;25.07;7.03;;;;;;;3.77;100.00;102967.06;5075986;28;20465;-39
2024/01/25 08:22:46;;;;;;;18.17;7.27;;;;;;;3.73;100.00;102958.47;5076727;28;20411;-39
2024/01/25 08:25:13;;;;;;;23.93;7.17;;;;;;;3.78;100.00;102974.09;5075826;28;20024;-39
2024/01/25 08:27:39;;;;;;;27.17;7.70;;;;;;;3.84;100.00;102985.13;5075090;28;20048;-39
2024/01/25 08:30:05;;;;;;;27.75;7.53;;;;;;;3.89;100.00;102998.09;5075771;28;20076;-39
2024/01/25 08:32:30;;;;;;;30.85;7.90;;;;;;;3.93;100.00;102977.28;5076311;28;20423;-39
2024/01/25 08:34:56;;;;;;;26.67;6.30;;;;;;;3.95;100.00;102948.53;5075313;28;20107;-39
2024/01/25 08:37:21;;;;;;;20.67;6.93;;;;;;;3.97;100.00;102941.22;5075640;28;20028;-39
2024/01/25 08:39:49;;;;;;;26.63;7.07;;;;;;;3.97;100.00;102954.59;5075504;28;20461;-39
2024/01/25 08:42:17;;;;;;;25.92;6.35;;;;;;;3.94;100.00;102953.03;5075508;28;20302;-39
2024/01/25 08:44:48;;;;;;;25.00;7.72;;;;;;;4.05;100.00;102960.97;5075856;28;20492;-39
2024/01/25 08:47:15;;;;;;;25.67;6.57;;;;;;;4.10;100.00;102953.38;5075479;28;20025;-39
2024/01/25 08:49:40;;;;;;;25.17;8.13;;;;;;;4.13;100.00;102958.44;5075937;28;20028;-39
2024/01/25 08:52:06;;;;;;;32.33;8.90;;;;;;;4.18;100.00;102968.75;5075904;28;20032;-39
2024/01/25 08:54:32;;;;;;;28.25;7.93;;;;;;;4.20;100.00;102977.50;5075277;28;20254;-39
2024/01/25 08:56:57;;;;;;;27.80;8.17;;;;;;;4.23;100.00;102981.72;5076477;28;20056;-39
2024/01/25 08:59:22;;;;;;;31.00;7.70;;;;;;;4.26;100.00;102981.47;5074929;28;20332;-39
2024/01/25 09:01:48;;;;;;;30.50;8.33;;;;;;;4.26;100.00;102984.16;5074975;28;20385;-39
2024/01/25 09:04:13;;;;;;;22.43;7.73;;;;;;;4.28;100.00;102991.03;5075206;28;20025;-39
2024/01/25 09:06:39;;;;;;;29.37;8.47;;;;;;;4.32;100.00;103003.19;5075729;28;20456;-39
2024/01/25 09:09:05;;;;;;;24.55;7.50;;;;;;;4.28;100.00;102980.31;5075065;28;20028;-39
2024/01/25 09:11:30;;;;;;;27.13;7.93;;;;;;;4.39;100.00;102984.72;5075040;28;20029;-39
2024/01/25 09:13:56;;;;;;;27.00;8.25;;;;;;;4.42;100.00;102986.28;5074626;28;20025;-39
2024/01/25 09:16:22;;;;;;;25.45;8.82;;;;;;;4.43;100.00;102988.81;5074578;28;20024;-39
2024/01/25 09:18:47;;;;;;;24.25;8.05;;;;;;;4.39;100.00;102969.53;5075132;28;20021;-39
2024/01/25 09:21:13;;;;;;;33.10;8.35;;;;;;;4.50;100.00;102984.63;5074516;28;20124;-39
2024/01/25 09:23:39;;;;;;;30.30;8.80;;;;;;;4.56;100.00;102991.25;5074746;28;20032;-39
2024/01/25 09:26:05;;;;;;;27.92;8.10;;;;;;;4.64;100.00;102996.75;5074749;28;20029;-39
2024/01/25 09:28:30;;;;;;;31.63;8.40;;;;;;;4.69;100.00;102983.78;5074389;28;20028;-39
2024/01/25 09:30:55;;;;;;;24.60;8.97;;;;;;;4.71;100.00;102981.81;5074925;28;20021;-39
2024/01/25 09:33:21;;;;;;;24.23;7.97;;;;;;;4.77;100.00;102986.59;5074786;28;20024;-39
2024/01/25 09:35:47;;;;;;;30.03;9.27;;;;;;;4.84;100.00;102990.44;5074190;28;20033;-39
2024/01/25 09:38:13;;;;;;;28.35;9.25;;;;;;;4.88;100.00;102981.13;5075038;28;20056;-39
2024/01/25 09:40:38;;;;;;;28.77;8.52;;;;;;;4.88;100.00;102965.03;5073609;28;20038;-39
2024/01/25 09:43:04;;;;;;;24.80;9.82;;;;;;;5.05;100.00;102976.88;5074343;28;20082;-40
2024/01/25 09:45:31;;;;;;;24.67;8.27;;;;;;;4.99;100.00;102965.88;5073990;28;20028;-39
2024/01/25 09:47:56;;;;;;;31.17;9.60;;;;;;;5.15;100.00;102987.59;5074346;28;20028;-39
2024/01/25 09:50:22;;;;;;;24.02;8.25;;;;;;;5.12;100.00;102972.63;5074260;28;20074;-39
2024/01/25 09:52:57;;;;;;;26.37;9.37;;;;;;;5.24;100.00;102992.09;5073902;28;20077;-39
2024/01/25 09:55:26;;;;;;;28.48;8.45;;;;;;;5.30;100.00;102983.47;5074414;28;20486;-39
2024/01/25 09:57:56;;;;;;;21.58;7.57;;;;;;;5.34;100.00;102984.03;5074361;28;20028;-39
2024/01/25 10:00:22;;;;;;;28.20;8.20;;;;;;;5.41;100.00;102988.66;5073927;28;20024;-39
2024/01/25 10:02:49;;;;;;;22.73;9.15;;;;;;;5.37;100.00;102979.22;5073741;28;20485;-39
2024/01/25 10:05:15;;;;;;;23.20;9.73;;;;;;;5.39;100.00;102969.19;5073580;28;20036;-39
2024/01/25 10:07:42;;;;;;;21.40;8.52;;;;;;;5.44;100.00;102966.06;5074715;28;20032;-39
2024/01/25 10:10:08;;;;;;;26.52;9.30;;;;;;;5.53;100.00;102970.56;5073842;28;20103;-39
2024/01/25 10:12:34;;;;;;;25.33;9.48;;;;;;;5.56;100.00;102964.91;5073898;28;20054;-39
2024/01/25 10:14:59;;;;;;;20.98;9.80;;;;;;;5.59;100.00;102961.06;5073776;28;20028;-39
2024/01/25 10:17:25;;;;;;;30.53;10.67;;;;;;;5.59;100.00;102961.06;5074325;28;20056;-39
2024/01/25 10:19:51;;;;;;;18.95;9.80;;;;;;;5.62;100.00;102960.78;5074039;28;20155;-39
2024/01/25 10:22:16;;;;;;;23.25;10.25;;;;;;;5.66;100.00;102964.84;5073992;28;20024;-39
2024/01/25 10:24:41;;;;;;;26.90;11.07;;;;;;;5.56;100.00;102953.31;5073624;28;20071;-39
2024/01/25 10:27:08;;;;;;;26.58;10.57;;;;;;;5.67;100.00;102967.41;5073844;28;20024;-39
2024/01/25 10:29:36;;;;;;;;;;;;;;;5.75;100.00;102963.13;5074035;28;20476;-39
2024/01/25 10:32:03;;;;;;;25.75;11.23;;;;;;;5.72;100.00;102953.56;5074112;28;19975;-39
2024/01/25 10:34:30;;;;;;;23.05;10.48;;;;;;;5.75;100.00;102941.66;5073476;28;20025;-39
2024/01/25 10:36:55;;;;;;;24.73;10.35;;;;;;;5.70;100.00;102944.78;5073387;28;20147;-39
2024/01/25 10:39:21;;;;;;;24.38;10.95;;;;;;;5.82;100.00;102948.97;5073935;28;20103;-39
2024/01/25 10:41:50;;;;;;;27.88;11.02;;;;;;;5.87;100.00;102941.31;5074263;28;20024;-39
2024/01/25 10:44:19;;;;;;;21.77;10.73;;;;;;;5.87;100.00;102930.59;5073085;28;20142;-39
2024/01/25 10:46:48;;;;;;;27.23;10.88;;;;;;;5.92;100.00;102930.16;5073734;28;20115;-39
2024/01/25 10:49:14;;;;;;;22.75;10.93;;;;;;;5.96;100.00;102939.63;5073694;28;20083;-39
2024/01/25 10:51:41;;;;;;;23.70;10.60;;;;;;;6.02;100.00;102933.66;5073196;28;20414;-39
2024/01/25 10:54:11;;;;;;;27.45;12.18;;;;;;;6.05;100.00;102935.16;5073348;28;20111;-39
2024/01/25 10:56:38;;;;;;;29.98;13.50;;;;;;;6.07;100.00;102930.50;5073759;28;20048;-39
2024/01/25 10:59:03;;;;;;;;;;;;;;;6.14;100.00;102918.16;5073674;28;20039;-39
2024/01/25 11:01:29;;;;;;;27.98;12.35;;;;;;;6.06;100.00;102901.97;5073876;28;20019;-39
2024/01/25 11:03:54;;;;;;;27.10;12.15;;;;;;;6.19;100.00;102923.91;5073257;28;20445;-39
2024/01/25 11:06:21;;;;;;;26.77;12.10;;;;;;;6.14;100.00;102902.03;5074062;28;20039;-39
2024/01/25 11:08:47;;;;;;;26.77;12.43;;;;;;;6.14;100.00;102910.94;5072866;28;20769;-39
2024/01/25 11:11:13;;;;;;;26.80;11.23;;;;;;;6.24;100.00;102920.78;5072974;28;20028;-39
2024/01/25 11:13:40;;;;;;;27.38;12.07;;;;;;;6.18;100.00;102898.91;5073101;28;20306;-39